Current Observation

FTSO31 AGGG 230510Z
TAF AGGH 230510Z 2306/2406 34008KT 9999 –SHRA FEW017 SCT028
PROB30 INTER 2306/2310 9999 -TSSH SCT017 FEW018CB
T 31 28 26 24 Q 1008 1010 1011 1009=

TAF AGGM 230510Z 2306/2406 VRB03KT 9999 –SHRA FEW017 SCT028
PROB30 INTER 2306/2310 9999 -TSSH SCT017 FEW018CB
Q 1007 1009 1011 1008=

TAF AGGN 230510Z 2306/2406 05008KT 9999 –SHRA SCT017 SCT028
PROB30 INTER 2306/2310 9999 -TSSH SCT017 FEW018CB
Q 1007 1009 1011 1008=

Last modified on Monday, 23 October 2017 16:06

Weather Outlook

Support and Docs

Modern Design
Go to top